C.f. Campbell — WDC7294 — position and weather

sailwx.info

Track history (hours):
 
Tides and Currents Weather Stations Pressure Air Temp Water Temp Dewpoint Dewpoint Depression Visibility Wind Speed Wind Dir Waves Ship Positions

C.f. Campbell

Owner: Harley Marine Services, Inc., Seattle, WA. More information available from US FCC via Universal Licensing System and Coast Guard Vessel Documentation Center.

Last reported at 2018-Jun-19 17:38 UTC. Time now 2018-Jun-19 22:20 UTC.
Position N 40°49' W 073°58'.

Length 32 m; draft 5.5 m.

Type: Towing. MMSI: 367069240.

Date/timePositionNaut miles runAvg speedWind from/ knotsBaromVisibWave heightAir tempDewpointWater temp
2018-Jun-19 17:38N 40°49' W 073°58'1 4.0
2018-Jun-19 17:29N 40°48' W 073°59'4 8.6
2018-Jun-19 17:00N 40°45' W 074°01'5 9.7
2018-Jun-19 16:30N 40°40' W 074°03'2 3.6
2018-Jun-19 15:59N 40°39' W 074°05'0 0.0
2018-Jun-19 15:29N 40°39' W 074°05'0 0.0
2018-Jun-19 14:59N 40°39' W 074°05'0 0.0
2018-Jun-19 14:29N 40°39' W 074°05'0 0.0
2018-Jun-19 13:59N 40°39' W 074°05'0 0.0
2018-Jun-19 13:29N 40°39' W 074°05'0 0.0
2018-Jun-19 12:59N 40°39' W 074°05'0 0.0
2018-Jun-19 12:29N 40°39' W 074°05'0 0.0
2018-Jun-19 11:59N 40°39' W 074°05'0 0.0
2018-Jun-19 11:29N 40°39' W 074°05'0 0.0
2018-Jun-19 10:59N 40°39' W 074°05'0 0.0
2018-Jun-19 10:29N 40°39' W 074°05'0 0.0
2018-Jun-19 09:59N 40°39' W 074°05'0 0.0
2018-Jun-19 09:29N 40°39' W 074°05'0 0.0
2018-Jun-19 08:59N 40°39' W 074°05'0 0.0
2018-Jun-19 08:29N 40°39' W 074°05'0 0.0
2018-Jun-19 07:59N 40°39' W 074°05'0 0.0
2018-Jun-19 07:29N 40°39' W 074°05'0 0.0
2018-Jun-19 06:59N 40°39' W 074°05'0 0.0
2018-Jun-19 06:29N 40°39' W 074°05'0 0.0
2018-Jun-19 05:59N 40°39' W 074°05'0 0.0
2018-Jun-19 05:29N 40°39' W 074°05'0 0.0
2018-Jun-19 04:59N 40°39' W 074°05'0 0.0
2018-Jun-19 04:29N 40°39' W 074°05'0 0.0
2018-Jun-19 03:59N 40°39' W 074°05'0 0.0
2018-Jun-19 03:29N 40°39' W 074°05'0 0.0
2018-Jun-19 02:59N 40°39' W 074°05'0 0.0
2018-Jun-19 02:29N 40°39' W 074°05'0 0.0
2018-Jun-19 01:59N 40°39' W 074°05'0 0.0
2018-Jun-19 01:29N 40°39' W 074°05'0 0.0
2018-Jun-19 00:59N 40°39' W 074°05'0 0.0
2018-Jun-19 00:29N 40°39' W 074°05'0 0.0
2018-Jun-18 23:59N 40°39' W 074°05'0 0.0
2018-Jun-18 23:29N 40°39' W 074°05'0 0.0
2018-Jun-18 22:59N 40°39' W 074°05'0 0.0
2018-Jun-18 22:29N 40°39' W 074°05'0 0.0
2018-Jun-18 21:59N 40°39' W 074°05'0 0.0
2018-Jun-18 21:26N 40°39' W 074°05'0 0.0
2018-Jun-18 20:59N 40°39' W 074°05'0 0.0
2018-Jun-18 20:29N 40°39' W 074°05'0 0.0
2018-Jun-18 19:59N 40°39' W 074°05'0 0.0
2018-Jun-18 19:29N 40°39' W 074°05'0 0.0
2018-Jun-18 18:59N 40°39' W 074°05'0 0.0
2018-Jun-18 18:29N 40°39' W 074°05'0 0.0
2018-Jun-18 17:59N 40°39' W 074°05'0 0.1
2018-Jun-18 17:26N 40°39' W 074°05'0 0.0
2018-Jun-18 16:59N 40°39' W 074°05'0 0.3
2018-Jun-18 16:30N 40°39' W 074°05'2 2.6
2018-Jun-18 15:56N 40°39' W 074°07'0 0.0
2018-Jun-18 15:30N 40°39' W 074°07'0 0.1
2018-Jun-18 14:59N 40°39' W 074°07'0 0.0
2018-Jun-18 14:29N 40°39' W 074°07'0 0.0
2018-Jun-18 13:59N 40°39' W 074°07'0 0.0
2018-Jun-18 13:26N 40°39' W 074°07'0 0.0
2018-Jun-18 12:59N 40°39' W 074°07'0 0.0
2018-Jun-18 12:29N 40°39' W 074°07'0 0.0
2018-Jun-18 11:59N 40°39' W 074°07'0 0.0
2018-Jun-18 11:23N 40°39' W 074°07'0 0.0
2018-Jun-18 10:59N 40°39' W 074°07'0 0.0
2018-Jun-18 10:29N 40°39' W 074°07'0 0.0
2018-Jun-18 09:59N 40°39' W 074°07'0 0.0
2018-Jun-18 09:27N 40°39' W 074°07'0 0.0
2018-Jun-18 08:56N 40°39' W 074°07'0 0.0
2018-Jun-18 08:29N 40°39' W 074°07'0 0.0
2018-Jun-18 07:59N 40°39' W 074°07'0 0.0
2018-Jun-18 07:29N 40°39' W 074°07'0 0.0
2018-Jun-18 07:00N 40°39' W 074°07'0 0.0
2018-Jun-18 06:30N 40°39' W 074°07'0 0.0
2018-Jun-18 05:59N 40°39' W 074°07'0 0.0
2018-Jun-18 05:29N 40°39' W 074°07'0 0.0
2018-Jun-18 04:56N 40°39' W 074°07'0 0.0
2018-Jun-18 04:29N 40°39' W 074°07'0 0.0
2018-Jun-18 04:00N 40°39' W 074°07'0 0.0
2018-Jun-18 03:30N 40°39' W 074°07'0 0.0
2018-Jun-18 02:59N 40°39' W 074°07'0 0.0
2018-Jun-18 02:29N 40°39' W 074°07'0 0.0
2018-Jun-18 01:59N 40°39' W 074°07'0 0.0
2018-Jun-18 01:29N 40°39' W 074°07'0 0.0
2018-Jun-18 01:00N 40°39' W 074°07'0 0.0
2018-Jun-18 00:29N 40°39' W 074°07'0 0.0
2018-Jun-17 23:59N 40°39' W 074°07'0 0.0
2018-Jun-17 23:30N 40°39' W 074°07'0 0.0
2018-Jun-17 23:00N 40°39' W 074°07'0 0.0
2018-Jun-17 22:30N 40°39' W 074°07'2 3.0
2018-Jun-17 22:00N 40°39' W 074°05'0 0.1
2018-Jun-17 21:30N 40°39' W 074°05'2 3.3
2018-Jun-17 21:01N 40°39' W 074°03'2 4.8
2018-Jun-17 20:30N 40°40' W 074°00'0 0.0
2018-Jun-17 20:01N 40°40' W 074°00'0 0.0
2018-Jun-17 19:22N 40°40' W 074°00'0 0.0
2018-Jun-17 18:55N 40°40' W 074°00'0 0.0
2018-Jun-17 18:18N 40°40' W 074°00'0 0.0
2018-Jun-17 17:59N 40°40' W 074°00'0 0.0
2018-Jun-17 17:18N 40°40' W 074°00'0 0.0
2018-Jun-17 17:00N 40°40' W 074°00'0 0.1
2018-Jun-17 16:29N 40°40' W 074°00'2 4.8
2018-Jun-17 16:00N 40°39' W 074°03'2 2.9
2018-Jun-17 15:21N 40°39' W 074°05'0 0.0
2018-Jun-17 14:52N 40°39' W 074°05'0 0.0
2018-Jun-17 14:27N 40°39' W 074°05'0 0.0
2018-Jun-17 13:56N 40°39' W 074°05'0 0.0
2018-Jun-17 13:28N 40°39' W 074°05'0 0.0
2018-Jun-17 13:00N 40°39' W 074°05'0 0.0
2018-Jun-17 12:30N 40°39' W 074°05'0 0.0
2018-Jun-17 12:01N 40°39' W 074°05'0 0.0
2018-Jun-17 11:30N 40°39' W 074°05'0 0.0
2018-Jun-17 11:01N 40°39' W 074°05'0 0.0
2018-Jun-17 10:30N 40°39' W 074°05'0 0.0
2018-Jun-17 10:00N 40°39' W 074°05'0 0.0
2018-Jun-17 09:30N 40°39' W 074°05'0 0.0
2018-Jun-17 09:00N 40°39' W 074°05'0 0.0
2018-Jun-17 08:31N 40°39' W 074°05'0 0.0
2018-Jun-17 08:01N 40°39' W 074°05'0 0.0
2018-Jun-17 07:31N 40°39' W 074°05'0 0.0
2018-Jun-17 07:01N 40°39' W 074°05'0 0.0
2018-Jun-17 06:30N 40°39' W 074°05'0 0.0
2018-Jun-17 06:01N 40°39' W 074°05'0 0.0
2018-Jun-17 05:30N 40°39' W 074°05'0 0.0
2018-Jun-17 05:00N 40°39' W 074°05'0 0.0
2018-Jun-17 04:31N 40°39' W 074°05'0 0.0
2018-Jun-17 04:01N 40°39' W 074°05'0 0.1
2018-Jun-17 03:31N 40°39' W 074°05'0 0.3
2018-Jun-17 03:00N 40°39' W 074°05'1 2.2
2018-Jun-17 02:30N 40°39' W 074°04'0 0.1
2018-Jun-17 02:00N 40°39' W 074°04'0 0.6
2018-Jun-17 01:29N 40°38' W 074°04'0 0.9
2018-Jun-17 01:01N 40°39' W 074°04'2 4.6
2018-Jun-17 00:30N 40°39' W 074°07'2 4.7
2018-Jun-17 00:00N 40°39' W 074°10'2 1.5
2018-Jun-16 22:39N 40°38' W 074°12'0 0.0
2018-Jun-16 22:27N 40°38' W 074°12'0 0.0
2018-Jun-16 21:50N 40°38' W 074°12'0 0.0
2018-Jun-16 21:26N 40°38' W 074°12'0 0.0
2018-Jun-16 21:00N 40°38' W 074°12'0 0.0
2018-Jun-16 20:18N 40°38' W 074°12'0 0.0
2018-Jun-16 19:46N 40°38' W 074°12'0 0.0
2018-Jun-16 19:30N 40°38' W 074°12'0 0.0
2018-Jun-16 18:53N 40°38' W 074°12'0 0.0
2018-Jun-16 18:28N 40°38' W 074°12'0 0.0
2018-Jun-16 18:00N 40°38' W 074°12'0 0.0
2018-Jun-16 17:26N 40°38' W 074°12'0 0.0
2018-Jun-16 17:00N 40°38' W 074°12'0 0.0
2018-Jun-16 16:25N 40°38' W 074°12'0 0.0
2018-Jun-16 16:00N 40°38' W 074°12'0 0.0
2018-Jun-16 15:25N 40°38' W 074°12'0 0.0
2018-Jun-16 14:55N 40°38' W 074°12'0 0.0
2018-Jun-16 14:24N 40°38' W 074°12'0 0.0
2018-Jun-16 14:00N 40°38' W 074°12'0 0.0
2018-Jun-16 13:30N 40°38' W 074°12'0 0.0
2018-Jun-16 13:00N 40°38' W 074°12'0 0.0
2018-Jun-16 12:30N 40°38' W 074°12'0 0.0
2018-Jun-16 12:00N 40°38' W 074°12'0 0.0
2018-Jun-16 11:30N 40°38' W 074°12'0 0.0
2018-Jun-16 11:00N 40°38' W 074°12'0 0.0
2018-Jun-16 10:31N 40°38' W 074°12'0 0.0
2018-Jun-16 10:00N 40°38' W 074°12'0 0.0
2018-Jun-16 09:30N 40°38' W 074°12'0 0.0
2018-Jun-16 09:00N 40°38' W 074°12'0 0.0
2018-Jun-16 08:27N 40°38' W 074°12'0 0.0
2018-Jun-16 07:59N 40°38' W 074°12'0 0.0
2018-Jun-16 07:20N 40°38' W 074°12'0 0.0
2018-Jun-16 06:56N 40°38' W 074°12'0 0.0
2018-Jun-16 06:18N 40°38' W 074°12'0 0.0
2018-Jun-16 05:59N 40°38' W 074°12'0 0.0
2018-Jun-16 05:27N 40°38' W 074°12'0 0.0
2018-Jun-16 04:59N 40°38' W 074°12'0 0.2
2018-Jun-16 04:30N 40°38' W 074°12'2 4.5
2018-Jun-16 04:00N 40°39' W 074°10'3 6.6
2018-Jun-16 03:30N 40°39' W 074°05'2 4.1
2018-Jun-16 03:01N 40°39' W 074°03'0 0.0
2018-Jun-16 02:30N 40°39' W 074°03'0 0.0
2018-Jun-16 02:01N 40°39' W 074°03'0 0.0
2018-Jun-16 01:30N 40°39' W 074°03'0 0.1
2018-Jun-16 01:00N 40°39' W 074°03'0 0.0
2018-Jun-16 00:31N 40°39' W 074°03'0 0.0
2018-Jun-16 00:00N 40°39' W 074°03'0 0.0
2018-Jun-15 23:30N 40°39' W 074°03'0 0.1
2018-Jun-15 23:00N 40°39' W 074°03'0 0.0
2018-Jun-15 22:31N 40°39' W 074°03'0 0.0
2018-Jun-15 22:00N 40°39' W 074°03'0 0.0
2018-Jun-15 21:31N 40°39' W 074°03'0 0.0
2018-Jun-15 21:00N 40°39' W 074°03'0 0.1
2018-Jun-15 20:30N 40°39' W 074°03'0 0.1
2018-Jun-15 20:00N 40°39' W 074°03'0 0.1
2018-Jun-15 19:30N 40°39' W 074°03'0 0.0
2018-Jun-15 19:01N 40°39' W 074°03'0 0.1
2018-Jun-15 18:31N 40°39' W 074°03'2 3.4
2018-Jun-15 18:00N 40°37' W 074°03'3 4.8
2018-Jun-15 17:28N 40°35' W 074°02'46 9.1
2018-Jun-15 12:25N 39°49' W 073°58'410.8
2018-Jun-15 12:00N 39°45' W 073°59'610.9
2018-Jun-15 11:29N 39°40' W 074°02'510.7
2018-Jun-15 11:00N 39°35' W 074°04'510.5
2018-Jun-15 10:30N 39°30' W 074°07'2410.1
2018-Jun-15 08:09N 39°11' W 074°25'210.1
2018-Jun-15 07:59N 39°10' W 074°26'510.1
2018-Jun-15 07:30N 39°06' W 074°31'510.3
2018-Jun-15 07:01N 39°03' W 074°36'510.6
2018-Jun-15 06:30N 38°59' W 074°41'510.6
2018-Jun-15 06:00N 38°55' W 074°45'511.0
2018-Jun-15 05:30N 38°51' W 074°49'611.6
2018-Jun-15 05:00N 38°48' W 074°56'510.4
2018-Jun-15 04:30N 38°50' W 075°02'611.7
2018-Jun-15 04:00N 38°55' W 075°06'610.9
2018-Jun-15 03:30N 39°00' W 075°09'5 9.9
2018-Jun-15 03:01N 39°05' W 075°11'5 9.7
2018-Jun-15 02:30N 39°09' W 075°15'4 8.7
2018-Jun-15 02:01N 39°13' W 075°17'4 8.2
2018-Jun-15 01:30N 39°16' W 075°21'4 8.3
2018-Jun-15 01:00N 39°19' W 075°24'5 9.1
2018-Jun-15 00:30N 39°22' W 075°28'5 9.4
2018-Jun-15 00:01N 39°26' W 075°32'5 9.8
2018-Jun-14 23:30N 39°31' W 075°33'611.2
2018-Jun-14 23:00N 39°36' W 075°34'611.3
2018-Jun-14 22:30N 39°41' W 075°31'611.8
2018-Jun-14 22:01N 39°47' W 075°28'611.7
2018-Jun-14 21:30N 39°50' W 075°22'4 7.6
2018-Jun-14 21:00N 39°51' W 075°17'4 7.2
2018-Jun-14 20:30N 39°52' W 075°13'2 3.6
2018-Jun-14 20:00N 39°54' W 075°13'1 1.0
2018-Jun-14 19:30N 39°55' W 075°13'0 0.0
2018-Jun-14 19:00N 39°55' W 075°13'0 0.1
2018-Jun-14 18:30N 39°55' W 075°13'0 0.0
2018-Jun-14 18:00N 39°55' W 075°13'0 0.0
2018-Jun-14 17:29N 39°55' W 075°13'0 0.0
2018-Jun-14 17:01N 39°55' W 075°13'0 0.0
2018-Jun-14 16:30N 39°55' W 075°13'0 0.0
2018-Jun-14 16:00N 39°55' W 075°13'0 0.0
2018-Jun-14 15:30N 39°55' W 075°13'0 0.0
2018-Jun-14 15:00N 39°55' W 075°13'0 0.0
2018-Jun-14 14:30N 39°55' W 075°13'0 0.0
2018-Jun-14 14:00N 39°55' W 075°13'0 0.0
2018-Jun-14 13:30N 39°55' W 075°13'0 0.0
2018-Jun-14 13:00N 39°55' W 075°13'0 0.0
2018-Jun-14 12:30N 39°55' W 075°13'0 0.0
2018-Jun-14 12:00N 39°55' W 075°13'0 0.0
2018-Jun-14 11:30N 39°55' W 075°13'0 0.0
2018-Jun-14 11:00N 39°55' W 075°13'0 0.0
2018-Jun-14 10:31N 39°55' W 075°13'0 0.0
2018-Jun-14 10:01N 39°55' W 075°13'0 0.0
2018-Jun-14 09:30N 39°55' W 075°13'0 0.0
2018-Jun-14 09:00N 39°55' W 075°13'0 0.0
2018-Jun-14 08:30N 39°55' W 075°13'0 0.0
2018-Jun-14 08:00N 39°55' W 075°13'0 0.0
2018-Jun-14 07:30N 39°55' W 075°13'0 0.0
2018-Jun-14 07:00N 39°55' W 075°13'0 0.0
2018-Jun-14 06:30N 39°55' W 075°13'0 0.0
2018-Jun-14 06:00N 39°55' W 075°13'0 0.0
2018-Jun-14 05:30N 39°55' W 075°13'0 0.0
2018-Jun-14 05:00N 39°55' W 075°13'0 0.0
2018-Jun-14 04:30N 39°55' W 075°13'0 0.1
2018-Jun-14 04:00N 39°55' W 075°13'1 2.6
2018-Jun-14 03:30N 39°54' W 075°12'2 3.1
2018-Jun-14 03:00N 39°52' W 075°13'4 8.1
2018-Jun-14 02:29N 39°51' W 075°18'510.0
2018-Jun-14 02:00N 39°49' W 075°24'5 9.8
2018-Jun-14 01:30N 39°46' W 075°29'5 9.6
2018-Jun-14 01:00N 39°41' W 075°31'5 9.2
2018-Jun-14 00:30N 39°38' W 075°35'5 9.0
2018-Jun-14 00:00N 39°33' W 075°32'4 8.6
2018-Jun-13 23:30N 39°29' W 075°34'4 7.8
2018-Jun-13 23:00N 39°26' W 075°32'4 8.0
2018-Jun-13 22:30N 39°23' W 075°28'4 7.6
2018-Jun-13 22:00N 39°20' W 075°25'3 6.9
2018-Jun-13 21:30N 39°17' W 075°22'4 7.1
2018-Jun-13 21:00N 39°15' W 075°19'3 6.5
2018-Jun-13 20:30N 39°12' W 075°17'3 6.8
2018-Jun-13 20:00N 39°09' W 075°15'3 6.8
2018-Jun-13 19:30N 39°06' W 075°12'6 6.6
2018-Jun-13 18:37N 39°01' W 075°09'19 3.5
2018-Jun-13 13:21N 38°54' W 074°47'49 6.9
2018-Jun-13 06:14N 39°32' W 074°06'2 7.2
2018-Jun-13 05:56N 39°34' W 074°05'3 7.4
2018-Jun-13 05:30N 39°37' W 074°03'5 7.5
2018-Jun-13 04:53N 39°41' W 074°01'3 7.4
2018-Jun-13 04:26N 39°44' W 073°59'4 7.3
2018-Jun-13 03:57N 39°47' W 073°58'17 7.1
2018-Jun-13 01:37N 40°04' W 073°55'26 5.9
2018-Jun-12 21:12N 40°30' W 073°57'1 3.4
2018-Jun-12 20:59N 40°30' W 073°58'2 3.2
2018-Jun-12 20:30N 40°31' W 073°59'2 3.5
2018-Jun-12 19:59N 40°32' W 074°01'2 5.0
2018-Jun-12 19:30N 40°34' W 074°02'3 5.9
2018-Jun-12 19:01N 40°37' W 074°03'1 1.7
2018-Jun-12 18:28N 40°38' W 074°04'2 3.6
2018-Jun-12 18:00N 40°39' W 074°06'1 1.6
2018-Jun-12 17:26N 40°39' W 074°07'0 0.0
2018-Jun-12 16:59N 40°39' W 074°07'0 0.0
2018-Jun-12 16:29N 40°39' W 074°07'0 0.1
2018-Jun-12 15:59N 40°39' W 074°07'0 0.0
2018-Jun-12 15:26N 40°39' W 074°07'0 0.0
2018-Jun-12 14:59N 40°39' W 074°07'0 0.0
2018-Jun-12 14:29N 40°39' W 074°07'0 0.0
2018-Jun-12 13:59N 40°39' W 074°07'0 0.0
2018-Jun-12 13:26N 40°39' W 074°07'0 0.0
2018-Jun-12 12:56N 40°39' W 074°07'0 0.0
2018-Jun-12 12:29N 40°39' W 074°07'0 0.0
2018-Jun-12 11:59N 40°39' W 074°07'0 0.0
2018-Jun-12 11:29N 40°39' W 074°07'0 0.0
2018-Jun-12 10:50N 40°39' W 074°07'0 0.0
2018-Jun-12 10:29N 40°39' W 074°07'0 0.0
2018-Jun-12 09:59N 40°39' W 074°07'0 0.0
2018-Jun-12 09:20N 40°39' W 074°07'0 0.0
2018-Jun-12 08:59N 40°39' W 074°07'0 0.0
2018-Jun-12 08:26N 40°39' W 074°07'0 0.0
2018-Jun-12 07:47N 40°39' W 074°07'0 0.0
2018-Jun-12 07:29N 40°39' W 074°07'0 0.0
2018-Jun-12 06:53N 40°39' W 074°07'0 0.0
2018-Jun-12 06:26N 40°39' W 074°07'0 0.0
2018-Jun-12 05:53N 40°39' W 074°07'0 0.0
2018-Jun-12 05:29N 40°39' W 074°07'0 0.0
2018-Jun-12 04:44N 40°39' W 074°07'0 0.0
2018-Jun-12 04:20N 40°39' W 074°07'0 0.0
2018-Jun-12 03:56N 40°39' W 074°07'0 0.0
2018-Jun-12 02:50N 40°39' W 074°07'0 0.0
2018-Jun-12 02:29N 40°39' W 074°07'0 0.0
2018-Jun-12 01:59N 40°39' W 074°07'0 0.0
2018-Jun-12 01:14N 40°39' W 074°07'0 0.0
2018-Jun-12 00:56N 40°39' W 074°07'0 0.0
2018-Jun-12 00:23N 40°39' W 074°07'0 0.0
2018-Jun-11 23:56N 40°39' W 074°07'0 0.0
2018-Jun-11 23:20N 40°39' W 074°07'0 0.0
2018-Jun-11 22:38N 40°39' W 074°07'0 0.0
2018-Jun-11 17:14N 40°39' W 074°07'1 4.4
2018-Jun-11 16:56N 40°39' W 074°05'3 7.4
2018-Jun-11 16:28N 40°41' W 074°02'6 1.8
2018-Jun-11 12:56N 40°47' W 073°59'4 9.6
2018-Jun-11 12:30N 40°44' W 074°01'4 2.8
2018-Jun-11 11:00N 40°39' W 074°02'0 0.0
2018-Jun-11 10:24N 40°39' W 074°02'0 0.0
2018-Jun-11 08:24N 40°39' W 074°02'0 0.0
2018-Jun-11 08:00N 40°39' W 074°02'0 0.1
2018-Jun-11 07:18N 40°39' W 074°02'0 0.0
2018-Jun-11 06:48N 40°39' W 074°02'0 0.0
2018-Jun-11 06:30N 40°39' W 074°02'0 0.0
2018-Jun-11 06:00N 40°39' W 074°02'0 0.0
2018-Jun-11 05:30N 40°39' W 074°02'0 0.0
2018-Jun-11 05:00N 40°39' W 074°02'0 0.0
2018-Jun-11 04:30N 40°39' W 074°02'0 0.0
2018-Jun-11 04:00N 40°39' W 074°02'0 0.0
2018-Jun-11 03:30N 40°39' W 074°02'0 0.0
2018-Jun-11 03:00N 40°39' W 074°02'0 0.0
2018-Jun-11 02:30N 40°39' W 074°02'0 0.0
2018-Jun-11 02:00N 40°39' W 074°02'0 0.1
2018-Jun-11 01:30N 40°39' W 074°02'0 0.0
2018-Jun-11 01:00N 40°39' W 074°02'0 0.0
2018-Jun-11 00:30N 40°39' W 074°02'0 0.0
2018-Jun-11 00:00N 40°39' W 074°02'0 0.0
2018-Jun-10 23:30N 40°39' W 074°02'0 0.0
2018-Jun-10 23:00N 40°39' W 074°02'0 0.0
2018-Jun-10 22:30N 40°39' W 074°02'0 0.0
2018-Jun-10 22:00N 40°39' W 074°02'0 0.0
2018-Jun-10 21:27N 40°39' W 074°02'2 3.5
2018-Jun-10 21:00N 40°39' W 074°04'2 2.9
2018-Jun-10 20:25N 40°39' W 074°07'0 0.1
2018-Jun-10 19:59N 40°39' W 074°07'1 0.1
2018-Jun-10 13:26N 40°38' W 074°07'0 0.0
2018-Jun-10 12:59N 40°38' W 074°07'0 0.0
2018-Jun-10 10:38N 40°38' W 074°07'0 0.0
2018-Jun-10 08:53N 40°38' W 074°07'0 0.0
2018-Jun-10 07:23N 40°38' W 074°07'0 0.0
2018-Jun-10 04:47N 40°38' W 074°07'1 2.7
2018-Jun-10 04:30N 40°39' W 074°07'0 0.1
2018-Jun-10 04:00N 40°39' W 074°07'1 2.3
2018-Jun-10 03:31N 40°39' W 074°05'3 5.0
2018-Jun-10 03:00N 40°40' W 074°02'0 0.3
2018-Jun-10 02:29N 40°40' W 074°02'0 0.0
2018-Jun-10 01:59N 40°40' W 074°02'0 0.0
2018-Jun-10 01:30N 40°40' W 074°02'0 0.0
2018-Jun-10 00:59N 40°40' W 074°02'0 0.1
2018-Jun-10 00:29N 40°40' W 074°02'0 0.1
2018-Jun-10 00:00N 40°40' W 074°02'0 0.1
2018-Jun-09 23:30N 40°40' W 074°02'0 0.0
2018-Jun-09 23:01N 40°40' W 074°02'0 0.0
2018-Jun-09 22:30N 40°40' W 074°02'0 0.0
2018-Jun-09 22:01N 40°40' W 074°02'0 0.0
2018-Jun-09 21:31N 40°40' W 074°02'0 0.0
2018-Jun-09 20:59N 40°40' W 074°02'0 0.0
2018-Jun-09 20:31N 40°40' W 074°02'0 0.0
2018-Jun-09 20:00N 40°40' W 074°02'0 0.0
2018-Jun-09 19:31N 40°40' W 074°02'0 0.0
2018-Jun-09 19:01N 40°40' W 074°02'0 0.2
2018-Jun-09 18:31N 40°40' W 074°02'0 0.0
2018-Jun-09 18:01N 40°40' W 074°02'  
Track history (hours):
 
Tides and Currents Weather Stations Pressure Air Temp Water Temp Dewpoint Dewpoint Depression Visibility Wind Speed Wind Dir Waves Ship Positions

C.f. Campbell

Owner: Harley Marine Services, Inc., Seattle, WA. More information available from US FCC via Universal Licensing System and Coast Guard Vessel Documentation Center.

Last reported at 2018-Jun-19 17:38 UTC. Time now 2018-Jun-19 22:20 UTC.
Position N 40°49' W 073°58'.

Length 32 m; draft 5.5 m.

Type: Towing. MMSI: 367069240.

Date/timePositionNaut miles runAvg speedWind from/ knotsBaromVisibWave heightAir tempDewpointWater temp
2018-Jun-19 17:38N 40°49' W 073°58'1 4.0
2018-Jun-19 17:29N 40°48' W 073°59'4 8.6
2018-Jun-19 17:00N 40°45' W 074°01'5 9.7
2018-Jun-19 16:30N 40°40' W 074°03'2 3.6
2018-Jun-19 15:59N 40°39' W 074°05'0 0.0
2018-Jun-19 15:29N 40°39' W 074°05'0 0.0
2018-Jun-19 14:59N 40°39' W 074°05'0 0.0
2018-Jun-19 14:29N 40°39' W 074°05'0 0.0
2018-Jun-19 13:59N 40°39' W 074°05'0 0.0
2018-Jun-19 13:29N 40°39' W 074°05'0 0.0
2018-Jun-19 12:59N 40°39' W 074°05'0 0.0
2018-Jun-19 12:29N 40°39' W 074°05'0 0.0
2018-Jun-19 11:59N 40°39' W 074°05'0 0.0
2018-Jun-19 11:29N 40°39' W 074°05'0 0.0
2018-Jun-19 10:59N 40°39' W 074°05'0 0.0
2018-Jun-19 10:29N 40°39' W 074°05'0 0.0
2018-Jun-19 09:59N 40°39' W 074°05'0 0.0
2018-Jun-19 09:29N 40°39' W 074°05'0 0.0
2018-Jun-19 08:59N 40°39' W 074°05'0 0.0
2018-Jun-19 08:29N 40°39' W 074°05'0 0.0
2018-Jun-19 07:59N 40°39' W 074°05'0 0.0
2018-Jun-19 07:29N 40°39' W 074°05'0 0.0
2018-Jun-19 06:59N 40°39' W 074°05'0 0.0
2018-Jun-19 06:29N 40°39' W 074°05'0 0.0
2018-Jun-19 05:59N 40°39' W 074°05'0 0.0
2018-Jun-19 05:29N 40°39' W 074°05'0 0.0
2018-Jun-19 04:59N 40°39' W 074°05'0 0.0
2018-Jun-19 04:29N 40°39' W 074°05'0 0.0
2018-Jun-19 03:59N 40°39' W 074°05'0 0.0
2018-Jun-19 03:29N 40°39' W 074°05'0 0.0
2018-Jun-19 02:59N 40°39' W 074°05'0 0.0
2018-Jun-19 02:29N 40°39' W 074°05'0 0.0
2018-Jun-19 01:59N 40°39' W 074°05'0 0.0
2018-Jun-19 01:29N 40°39' W 074°05'0 0.0
2018-Jun-19 00:59N 40°39' W 074°05'0 0.0
2018-Jun-19 00:29N 40°39' W 074°05'0 0.0
2018-Jun-18 23:59N 40°39' W 074°05'0 0.0
2018-Jun-18 23:29N 40°39' W 074°05'0 0.0
2018-Jun-18 22:59N 40°39' W 074°05'0 0.0
2018-Jun-18 22:29N 40°39' W 074°05'0 0.0
2018-Jun-18 21:59N 40°39' W 074°05'0 0.0
2018-Jun-18 21:26N 40°39' W 074°05'0 0.0
2018-Jun-18 20:59N 40°39' W 074°05'0 0.0
2018-Jun-18 20:29N 40°39' W 074°05'0 0.0
2018-Jun-18 19:59N 40°39' W 074°05'0 0.0
2018-Jun-18 19:29N 40°39' W 074°05'0 0.0
2018-Jun-18 18:59N 40°39' W 074°05'0 0.0
2018-Jun-18 18:29N 40°39' W 074°05'0 0.0
2018-Jun-18 17:59N 40°39' W 074°05'0 0.1
2018-Jun-18 17:26N 40°39' W 074°05'0 0.0
2018-Jun-18 16:59N 40°39' W 074°05'0 0.3
2018-Jun-18 16:30N 40°39' W 074°05'2 2.6
2018-Jun-18 15:56N 40°39' W 074°07'0 0.0
2018-Jun-18 15:30N 40°39' W 074°07'0 0.1
2018-Jun-18 14:59N 40°39' W 074°07'0 0.0
2018-Jun-18 14:29N 40°39' W 074°07'0 0.0
2018-Jun-18 13:59N 40°39' W 074°07'0 0.0
2018-Jun-18 13:26N 40°39' W 074°07'0 0.0
2018-Jun-18 12:59N 40°39' W 074°07'0 0.0
2018-Jun-18 12:29N 40°39' W 074°07'0 0.0
2018-Jun-18 11:59N 40°39' W 074°07'0 0.0
2018-Jun-18 11:23N 40°39' W 074°07'0 0.0
2018-Jun-18 10:59N 40°39' W 074°07'0 0.0
2018-Jun-18 10:29N 40°39' W 074°07'0 0.0
2018-Jun-18 09:59N 40°39' W 074°07'0 0.0
2018-Jun-18 09:27N 40°39' W 074°07'0 0.0
2018-Jun-18 08:56N 40°39' W 074°07'0 0.0
2018-Jun-18 08:29N 40°39' W 074°07'0 0.0
2018-Jun-18 07:59N 40°39' W 074°07'0 0.0
2018-Jun-18 07:29N 40°39' W 074°07'0 0.0
2018-Jun-18 07:00N 40°39' W 074°07'0 0.0
2018-Jun-18 06:30N 40°39' W 074°07'0 0.0
2018-Jun-18 05:59N 40°39' W 074°07'0 0.0
2018-Jun-18 05:29N 40°39' W 074°07'0 0.0
2018-Jun-18 04:56N 40°39' W 074°07'0 0.0
2018-Jun-18 04:29N 40°39' W 074°07'0 0.0
2018-Jun-18 04:00N 40°39' W 074°07'0 0.0
2018-Jun-18 03:30N 40°39' W 074°07'0 0.0
2018-Jun-18 02:59N 40°39' W 074°07'0 0.0
2018-Jun-18 02:29N 40°39' W 074°07'0 0.0
2018-Jun-18 01:59N 40°39' W 074°07'0 0.0
2018-Jun-18 01:29N 40°39' W 074°07'0 0.0
2018-Jun-18 01:00N 40°39' W 074°07'0 0.0
2018-Jun-18 00:29N 40°39' W 074°07'0 0.0
2018-Jun-17 23:59N 40°39' W 074°07'0 0.0
2018-Jun-17 23:30N 40°39' W 074°07'0 0.0
2018-Jun-17 23:00N 40°39' W 074°07'0 0.0
2018-Jun-17 22:30N 40°39' W 074°07'2 3.0
2018-Jun-17 22:00N 40°39' W 074°05'0 0.1
2018-Jun-17 21:30N 40°39' W 074°05'2 3.3
2018-Jun-17 21:01N 40°39' W 074°03'2 4.8
2018-Jun-17 20:30N 40°40' W 074°00'0 0.0
2018-Jun-17 20:01N 40°40' W 074°00'0 0.0
2018-Jun-17 19:22N 40°40' W 074°00'0 0.0
2018-Jun-17 18:55N 40°40' W 074°00'0 0.0
2018-Jun-17 18:18N 40°40' W 074°00'0 0.0
2018-Jun-17 17:59N 40°40' W 074°00'0 0.0
2018-Jun-17 17:18N 40°40' W 074°00'0 0.0
2018-Jun-17 17:00N 40°40' W 074°00'0 0.1
2018-Jun-17 16:29N 40°40' W 074°00'2 4.8
2018-Jun-17 16:00N 40°39' W 074°03'2 2.9
2018-Jun-17 15:21N 40°39' W 074°05'0 0.0
2018-Jun-17 14:52N 40°39' W 074°05'0 0.0
2018-Jun-17 14:27N 40°39' W 074°05'0 0.0
2018-Jun-17 13:56N 40°39' W 074°05'0 0.0
2018-Jun-17 13:28N 40°39' W 074°05'0 0.0
2018-Jun-17 13:00N 40°39' W 074°05'0 0.0
2018-Jun-17 12:30N 40°39' W 074°05'0 0.0
2018-Jun-17 12:01N 40°39' W 074°05'0 0.0
2018-Jun-17 11:30N 40°39' W 074°05'0 0.0
2018-Jun-17 11:01N 40°39' W 074°05'0 0.0
2018-Jun-17 10:30N 40°39' W 074°05'0 0.0
2018-Jun-17 10:00N 40°39' W 074°05'0 0.0
2018-Jun-17 09:30N 40°39' W 074°05'0 0.0
2018-Jun-17 09:00N 40°39' W 074°05'0 0.0
2018-Jun-17 08:31N 40°39' W 074°05'0 0.0
2018-Jun-17 08:01N 40°39' W 074°05'0 0.0
2018-Jun-17 07:31N 40°39' W 074°05'0 0.0
2018-Jun-17 07:01N 40°39' W 074°05'0 0.0
2018-Jun-17 06:30N 40°39' W 074°05'0 0.0
2018-Jun-17 06:01N 40°39' W 074°05'0 0.0
2018-Jun-17 05:30N 40°39' W 074°05'0 0.0
2018-Jun-17 05:00N 40°39' W 074°05'0 0.0
2018-Jun-17 04:31N 40°39' W 074°05'0 0.0
2018-Jun-17 04:01N 40°39' W 074°05'0 0.1
2018-Jun-17 03:31N 40°39' W 074°05'0 0.3
2018-Jun-17 03:00N 40°39' W 074°05'1 2.2
2018-Jun-17 02:30N 40°39' W 074°04'0 0.1
2018-Jun-17 02:00N 40°39' W 074°04'0 0.6
2018-Jun-17 01:29N 40°38' W 074°04'0 0.9
2018-Jun-17 01:01N 40°39' W 074°04'2 4.6
2018-Jun-17 00:30N 40°39' W 074°07'2 4.7
2018-Jun-17 00:00N 40°39' W 074°10'2 1.5
2018-Jun-16 22:39N 40°38' W 074°12'0 0.0
2018-Jun-16 22:27N 40°38' W 074°12'0 0.0
2018-Jun-16 21:50N 40°38' W 074°12'0 0.0
2018-Jun-16 21:26N 40°38' W 074°12'0 0.0
2018-Jun-16 21:00N 40°38' W 074°12'0 0.0
2018-Jun-16 20:18N 40°38' W 074°12'0 0.0
2018-Jun-16 19:46N 40°38' W 074°12'0 0.0
2018-Jun-16 19:30N 40°38' W 074°12'0 0.0
2018-Jun-16 18:53N 40°38' W 074°12'0 0.0
2018-Jun-16 18:28N 40°38' W 074°12'0 0.0
2018-Jun-16 18:00N 40°38' W 074°12'0 0.0
2018-Jun-16 17:26N 40°38' W 074°12'0 0.0
2018-Jun-16 17:00N 40°38' W 074°12'0 0.0
2018-Jun-16 16:25N 40°38' W 074°12'0 0.0
2018-Jun-16 16:00N 40°38' W 074°12'0 0.0
2018-Jun-16 15:25N 40°38' W 074°12'0 0.0
2018-Jun-16 14:55N 40°38' W 074°12'0 0.0
2018-Jun-16 14:24N 40°38' W 074°12'0 0.0
2018-Jun-16 14:00N 40°38' W 074°12'0 0.0
2018-Jun-16 13:30N 40°38' W 074°12'0 0.0
2018-Jun-16 13:00N 40°38' W 074°12'0 0.0
2018-Jun-16 12:30N 40°38' W 074°12'0 0.0
2018-Jun-16 12:00N 40°38' W 074°12'0 0.0
2018-Jun-16 11:30N 40°38' W 074°12'0 0.0
2018-Jun-16 11:00N 40°38' W 074°12'0 0.0
2018-Jun-16 10:31N 40°38' W 074°12'0 0.0
2018-Jun-16 10:00N 40°38' W 074°12'0 0.0
2018-Jun-16 09:30N 40°38' W 074°12'0 0.0
2018-Jun-16 09:00N 40°38' W 074°12'0 0.0
2018-Jun-16 08:27N 40°38' W 074°12'0 0.0
2018-Jun-16 07:59N 40°38' W 074°12'0 0.0
2018-Jun-16 07:20N 40°38' W 074°12'0 0.0
2018-Jun-16 06:56N 40°38' W 074°12'0 0.0
2018-Jun-16 06:18N 40°38' W 074°12'0 0.0
2018-Jun-16 05:59N 40°38' W 074°12'0 0.0
2018-Jun-16 05:27N 40°38' W 074°12'0 0.0
2018-Jun-16 04:59N 40°38' W 074°12'0 0.2
2018-Jun-16 04:30N 40°38' W 074°12'2 4.5
2018-Jun-16 04:00N 40°39' W 074°10'3 6.6
2018-Jun-16 03:30N 40°39' W 074°05'2 4.1
2018-Jun-16 03:01N 40°39' W 074°03'0 0.0
2018-Jun-16 02:30N 40°39' W 074°03'0 0.0
2018-Jun-16 02:01N 40°39' W 074°03'0 0.0
2018-Jun-16 01:30N 40°39' W 074°03'0 0.1
2018-Jun-16 01:00N 40°39' W 074°03'0 0.0
2018-Jun-16 00:31N 40°39' W 074°03'0 0.0
2018-Jun-16 00:00N 40°39' W 074°03'0 0.0
2018-Jun-15 23:30N 40°39' W 074°03'0 0.1
2018-Jun-15 23:00N 40°39' W 074°03'0 0.0
2018-Jun-15 22:31N 40°39' W 074°03'0 0.0
2018-Jun-15 22:00N 40°39' W 074°03'0 0.0
2018-Jun-15 21:31N 40°39' W 074°03'0 0.0
2018-Jun-15 21:00N 40°39' W 074°03'0 0.1
2018-Jun-15 20:30N 40°39' W 074°03'0 0.1
2018-Jun-15 20:00N 40°39' W 074°03'0 0.1
2018-Jun-15 19:30N 40°39' W 074°03'0 0.0
2018-Jun-15 19:01N 40°39' W 074°03'0 0.1
2018-Jun-15 18:31N 40°39' W 074°03'2 3.4
2018-Jun-15 18:00N 40°37' W 074°03'3 4.8
2018-Jun-15 17:28N 40°35' W 074°02'46 9.1
2018-Jun-15 12:25N 39°49' W 073°58'410.8
2018-Jun-15 12:00N 39°45' W 073°59'610.9
2018-Jun-15 11:29N 39°40' W 074°02'510.7
2018-Jun-15 11:00N 39°35' W 074°04'510.5
2018-Jun-15 10:30N 39°30' W 074°07'2410.1
2018-Jun-15 08:09N 39°11' W 074°25'210.1
2018-Jun-15 07:59N 39°10' W 074°26'510.1
2018-Jun-15 07:30N 39°06' W 074°31'510.3
2018-Jun-15 07:01N 39°03' W 074°36'510.6
2018-Jun-15 06:30N 38°59' W 074°41'510.6
2018-Jun-15 06:00N 38°55' W 074°45'511.0
2018-Jun-15 05:30N 38°51' W 074°49'611.6
2018-Jun-15 05:00N 38°48' W 074°56'510.4
2018-Jun-15 04:30N 38°50' W 075°02'611.7
2018-Jun-15 04:00N 38°55' W 075°06'610.9
2018-Jun-15 03:30N 39°00' W 075°09'5 9.9
2018-Jun-15 03:01N 39°05' W 075°11'5 9.7
2018-Jun-15 02:30N 39°09' W 075°15'4 8.7
2018-Jun-15 02:01N 39°13' W 075°17'4 8.2
2018-Jun-15 01:30N 39°16' W 075°21'4 8.3
2018-Jun-15 01:00N 39°19' W 075°24'5 9.1
2018-Jun-15 00:30N 39°22' W 075°28'5 9.4
2018-Jun-15 00:01N 39°26' W 075°32'5 9.8
2018-Jun-14 23:30N 39°31' W 075°33'611.2
2018-Jun-14 23:00N 39°36' W 075°34'611.3
2018-Jun-14 22:30N 39°41' W 075°31'611.8
2018-Jun-14 22:01N 39°47' W 075°28'611.7
2018-Jun-14 21:30N 39°50' W 075°22'4 7.6
2018-Jun-14 21:00N 39°51' W 075°17'4 7.2
2018-Jun-14 20:30N 39°52' W 075°13'2 3.6
2018-Jun-14 20:00N 39°54' W 075°13'1 1.0
2018-Jun-14 19:30N 39°55' W 075°13'0 0.0
2018-Jun-14 19:00N 39°55' W 075°13'0 0.1
2018-Jun-14 18:30N 39°55' W 075°13'0 0.0
2018-Jun-14 18:00N 39°55' W 075°13'0 0.0
2018-Jun-14 17:29N 39°55' W 075°13'0 0.0
2018-Jun-14 17:01N 39°55' W 075°13'0 0.0
2018-Jun-14 16:30N 39°55' W 075°13'0 0.0
2018-Jun-14 16:00N 39°55' W 075°13'0 0.0
2018-Jun-14 15:30N 39°55' W 075°13'0 0.0
2018-Jun-14 15:00N 39°55' W 075°13'0 0.0
2018-Jun-14 14:30N 39°55' W 075°13'0 0.0
2018-Jun-14 14:00N 39°55' W 075°13'0 0.0
2018-Jun-14 13:30N 39°55' W 075°13'0 0.0
2018-Jun-14 13:00N 39°55' W 075°13'0 0.0
2018-Jun-14 12:30N 39°55' W 075°13'0 0.0
2018-Jun-14 12:00N 39°55' W 075°13'0 0.0
2018-Jun-14 11:30N 39°55' W 075°13'0 0.0
2018-Jun-14 11:00N 39°55' W 075°13'0 0.0
2018-Jun-14 10:31N 39°55' W 075°13'0 0.0
2018-Jun-14 10:01N 39°55' W 075°13'0 0.0
2018-Jun-14 09:30N 39°55' W 075°13'0 0.0
2018-Jun-14 09:00N 39°55' W 075°13'0 0.0
2018-Jun-14 08:30N 39°55' W 075°13'0 0.0
2018-Jun-14 08:00N 39°55' W 075°13'0 0.0
2018-Jun-14 07:30N 39°55' W 075°13'0 0.0
2018-Jun-14 07:00N 39°55' W 075°13'0 0.0
2018-Jun-14 06:30N 39°55' W 075°13'0 0.0
2018-Jun-14 06:00N 39°55' W 075°13'0 0.0
2018-Jun-14 05:30N 39°55' W 075°13'0 0.0
2018-Jun-14 05:00N 39°55' W 075°13'0 0.0
2018-Jun-14 04:30N 39°55' W 075°13'0 0.1
2018-Jun-14 04:00N 39°55' W 075°13'1 2.6
2018-Jun-14 03:30N 39°54' W 075°12'2 3.1
2018-Jun-14 03:00N 39°52' W 075°13'4 8.1
2018-Jun-14 02:29N 39°51' W 075°18'510.0
2018-Jun-14 02:00N 39°49' W 075°24'5 9.8
2018-Jun-14 01:30N 39°46' W 075°29'5 9.6
2018-Jun-14 01:00N 39°41' W 075°31'5 9.2
2018-Jun-14 00:30N 39°38' W 075°35'5 9.0
2018-Jun-14 00:00N 39°33' W 075°32'4 8.6
2018-Jun-13 23:30N 39°29' W 075°34'4 7.8
2018-Jun-13 23:00N 39°26' W 075°32'4 8.0
2018-Jun-13 22:30N 39°23' W 075°28'4 7.6
2018-Jun-13 22:00N 39°20' W 075°25'3 6.9
2018-Jun-13 21:30N 39°17' W 075°22'4 7.1
2018-Jun-13 21:00N 39°15' W 075°19'3 6.5
2018-Jun-13 20:30N 39°12' W 075°17'3 6.8
2018-Jun-13 20:00N 39°09' W 075°15'3 6.8
2018-Jun-13 19:30N 39°06' W 075°12'6 6.6
2018-Jun-13 18:37N 39°01' W 075°09'19 3.5
2018-Jun-13 13:21N 38°54' W 074°47'49 6.9
2018-Jun-13 06:14N 39°32' W 074°06'2 7.2
2018-Jun-13 05:56N 39°34' W 074°05'3 7.4
2018-Jun-13 05:30N 39°37' W 074°03'5 7.5
2018-Jun-13 04:53N 39°41' W 074°01'3 7.4
2018-Jun-13 04:26N 39°44' W 073°59'4 7.3
2018-Jun-13 03:57N 39°47' W 073°58'17 7.1
2018-Jun-13 01:37N 40°04' W 073°55'26 5.9
2018-Jun-12 21:12N 40°30' W 073°57'1 3.4
2018-Jun-12 20:59N 40°30' W 073°58'2 3.2
2018-Jun-12 20:30N 40°31' W 073°59'2 3.5
2018-Jun-12 19:59N 40°32' W 074°01'2 5.0
2018-Jun-12 19:30N 40°34' W 074°02'3 5.9
2018-Jun-12 19:01N 40°37' W 074°03'1 1.7
2018-Jun-12 18:28N 40°38' W 074°04'2 3.6
2018-Jun-12 18:00N 40°39' W 074°06'1 1.6
2018-Jun-12 17:26N 40°39' W 074°07'0 0.0
2018-Jun-12 16:59N 40°39' W 074°07'0 0.0
2018-Jun-12 16:29N 40°39' W 074°07'0 0.1
2018-Jun-12 15:59N 40°39' W 074°07'0 0.0
2018-Jun-12 15:26N 40°39' W 074°07'0 0.0
2018-Jun-12 14:59N 40°39' W 074°07'0 0.0
2018-Jun-12 14:29N 40°39' W 074°07'0 0.0
2018-Jun-12 13:59N 40°39' W 074°07'0 0.0
2018-Jun-12 13:26N 40°39' W 074°07'0 0.0
2018-Jun-12 12:56N 40°39' W 074°07'0 0.0
2018-Jun-12 12:29N 40°39' W 074°07'0 0.0
2018-Jun-12 11:59N 40°39' W 074°07'0 0.0
2018-Jun-12 11:29N 40°39' W 074°07'0 0.0
2018-Jun-12 10:50N 40°39' W 074°07'0 0.0
2018-Jun-12 10:29N 40°39' W 074°07'0 0.0
2018-Jun-12 09:59N 40°39' W 074°07'0 0.0
2018-Jun-12 09:20N 40°39' W 074°07'0 0.0
2018-Jun-12 08:59N 40°39' W 074°07'0 0.0
2018-Jun-12 08:26N 40°39' W 074°07'0 0.0
2018-Jun-12 07:47N 40°39' W 074°07'0 0.0
2018-Jun-12 07:29N 40°39' W 074°07'0 0.0
2018-Jun-12 06:53N 40°39' W 074°07'0 0.0
2018-Jun-12 06:26N 40°39' W 074°07'0 0.0
2018-Jun-12 05:53N 40°39' W 074°07'0 0.0
2018-Jun-12 05:29N 40°39' W 074°07'0 0.0
2018-Jun-12 04:44N 40°39' W 074°07'0 0.0
2018-Jun-12 04:20N 40°39' W 074°07'0 0.0
2018-Jun-12 03:56N 40°39' W 074°07'0 0.0
2018-Jun-12 02:50N 40°39' W 074°07'0 0.0
2018-Jun-12 02:29N 40°39' W 074°07'0 0.0
2018-Jun-12 01:59N 40°39' W 074°07'0 0.0
2018-Jun-12 01:14N 40°39' W 074°07'0 0.0
2018-Jun-12 00:56N 40°39' W 074°07'0 0.0
2018-Jun-12 00:23N 40°39' W 074°07'0 0.0
2018-Jun-11 23:56N 40°39' W 074°07'0 0.0
2018-Jun-11 23:20N 40°39' W 074°07'0 0.0
2018-Jun-11 22:38N 40°39' W 074°07'0 0.0
2018-Jun-11 17:14N 40°39' W 074°07'1 4.4
2018-Jun-11 16:56N 40°39' W 074°05'3 7.4
2018-Jun-11 16:28N 40°41' W 074°02'6 1.8
2018-Jun-11 12:56N 40°47' W 073°59'4 9.6
2018-Jun-11 12:30N 40°44' W 074°01'4 2.8
2018-Jun-11 11:00N 40°39' W 074°02'0 0.0
2018-Jun-11 10:24N 40°39' W 074°02'0 0.0
2018-Jun-11 08:24N 40°39' W 074°02'0 0.0
2018-Jun-11 08:00N 40°39' W 074°02'0 0.1
2018-Jun-11 07:18N 40°39' W 074°02'0 0.0
2018-Jun-11 06:48N 40°39' W 074°02'0 0.0
2018-Jun-11 06:30N 40°39' W 074°02'0 0.0
2018-Jun-11 06:00N 40°39' W 074°02'0 0.0
2018-Jun-11 05:30N 40°39' W 074°02'0 0.0
2018-Jun-11 05:00N 40°39' W 074°02'0 0.0
2018-Jun-11 04:30N 40°39' W 074°02'0 0.0
2018-Jun-11 04:00N 40°39' W 074°02'0 0.0
2018-Jun-11 03:30N 40°39' W 074°02'0 0.0
2018-Jun-11 03:00N 40°39' W 074°02'0 0.0
2018-Jun-11 02:30N 40°39' W 074°02'0 0.0
2018-Jun-11 02:00N 40°39' W 074°02'0 0.1
2018-Jun-11 01:30N 40°39' W 074°02'0 0.0
2018-Jun-11 01:00N 40°39' W 074°02'0 0.0
2018-Jun-11 00:30N 40°39' W 074°02'0 0.0
2018-Jun-11 00:00N 40°39' W 074°02'0 0.0
2018-Jun-10 23:30N 40°39' W 074°02'0 0.0
2018-Jun-10 23:00N 40°39' W 074°02'0 0.0
2018-Jun-10 22:30N 40°39' W 074°02'0 0.0
2018-Jun-10 22:00N 40°39' W 074°02'0 0.0
2018-Jun-10 21:27N 40°39' W 074°02'2 3.5
2018-Jun-10 21:00N 40°39' W 074°04'2 2.9
2018-Jun-10 20:25N 40°39' W 074°07'0 0.1
2018-Jun-10 19:59N 40°39' W 074°07'1 0.1
2018-Jun-10 13:26N 40°38' W 074°07'0 0.0
2018-Jun-10 12:59N 40°38' W 074°07'0 0.0
2018-Jun-10 10:38N 40°38' W 074°07'0 0.0
2018-Jun-10 08:53N 40°38' W 074°07'0 0.0
2018-Jun-10 07:23N 40°38' W 074°07'0 0.0
2018-Jun-10 04:47N 40°38' W 074°07'1 2.7
2018-Jun-10 04:30N 40°39' W 074°07'0 0.1
2018-Jun-10 04:00N 40°39' W 074°07'1 2.3
2018-Jun-10 03:31N 40°39' W 074°05'3 5.0
2018-Jun-10 03:00N 40°40' W 074°02'0 0.3
2018-Jun-10 02:29N 40°40' W 074°02'0 0.0
2018-Jun-10 01:59N 40°40' W 074°02'0 0.0
2018-Jun-10 01:30N 40°40' W 074°02'0 0.0
2018-Jun-10 00:59N 40°40' W 074°02'0 0.1
2018-Jun-10 00:29N 40°40' W 074°02'0 0.1
2018-Jun-10 00:00N 40°40' W 074°02'0 0.1
2018-Jun-09 23:30N 40°40' W 074°02'0 0.0
2018-Jun-09 23:01N 40°40' W 074°02'0 0.0
2018-Jun-09 22:30N 40°40' W 074°02'0 0.0
2018-Jun-09 22:01N 40°40' W 074°02'0 0.0
2018-Jun-09 21:31N 40°40' W 074°02'0 0.0
2018-Jun-09 20:59N 40°40' W 074°02'0 0.0
2018-Jun-09 20:31N 40°40' W 074°02'0 0.0
2018-Jun-09 20:00N 40°40' W 074°02'0 0.0
2018-Jun-09 19:31N 40°40' W 074°02'0 0.0
2018-Jun-09 19:01N 40°40' W 074°02'0 0.2
2018-Jun-09 18:31N 40°40' W 074°02'0 0.0
2018-Jun-09 18:01N 40°40' W 074°02'  

Dump ship's entire track history